Time,TemperatureF,DewpointF,PressureIn,WindDirection,WindDirectionDegrees,WindSpeedMPH,WindSpeedGustMPH,Humidity,HourlyPrecipIn,Conditions,Clouds,dailyrainin,SoftwareType,DateUTC
2013-10-21 00:01:00,54.8,53.7,29.41,SSE,166,4.0,7.0,96,0.00,,,0.00,WeatherCatV1.21B27,2013-10-20 23:01:00,
2013-10-21 00:06:00,54.8,53.7,29.40,South,174,5.0,7.0,96,0.00,,,0.00,WeatherCatV1.21B27,2013-10-20 23:06:00,
2013-10-21 00:11:00,54.8,53.7,29.40,SE,135,5.0,7.0,96,0.00,,,0.00,WeatherCatV1.21B27,2013-10-20 23:11:00,
2013-10-21 00:16:00,54.8,53.7,29.40,SE,141,6.0,7.0,96,0.00,,,0.00,WeatherCatV1.21B27,2013-10-20 23:16:00,
2013-10-21 00:21:00,54.8,53.7,29.40,South,186,3.0,7.0,96,0.00,,,0.00,WeatherCatV1.21B27,2013-10-20 23:21:00,
2013-10-21 00:26:00,54.8,53.7,29.40,SSE,149,6.0,8.0,96,0.00,,,0.00,WeatherCatV1.21B27,2013-10-20 23:26:00,
2013-10-21 00:31:00,54.7,53.6,29.40,SSE,161,8.0,8.0,96,0.00,,,0.00,WeatherCatV1.21B27,2013-10-20 23:31:00,
2013-10-21 00:36:00,54.5,53.4,29.40,SSE,155,2.0,6.0,96,0.00,,,0.00,WeatherCatV1.21B27,2013-10-20 23:36:00,
2013-10-21 00:41:00,54.5,53.4,29.40,SSE,160,5.0,7.0,96,0.00,,,0.00,WeatherCatV1.21B27,2013-10-20 23:41:00,
2013-10-21 00:46:00,54.5,53.4,29.40,SSE,167,7.0,8.0,96,0.00,,,0.00,WeatherCatV1.21B27,2013-10-20 23:46:00,
2013-10-21 00:51:00,54.5,53.4,29.40,SE,137,3.0,5.0,96,0.00,,,0.00,WeatherCatV1.21B27,2013-10-20 23:51:00,
2013-10-21 00:56:00,54.4,53.3,29.40,ESE,118,4.0,7.0,96,0.00,,,0.00,WeatherCatV1.21B27,2013-10-20 23:56:00,
2013-10-21 01:01:00,54.4,53.3,29.40,SSE,159,4.0,7.0,96,0.00,,,0.00,WeatherCatV1.21B27,2013-10-21 00:01:00,
2013-10-21 01:06:00,54.3,53.2,29.40,SSE,163,5.0,8.0,96,0.00,,,0.00,WeatherCatV1.21B27,2013-10-21 00:06:00,
2013-10-21 01:11:00,54.3,53.2,29.40,SE,141,4.0,7.0,96,0.00,,,0.00,WeatherCatV1.21B27,2013-10-21 00:11:00,
2013-10-21 01:16:00,54.4,53.3,29.40,SSE,164,4.0,5.0,96,0.00,,,0.00,WeatherCatV1.21B27,2013-10-21 00:16:00,
2013-10-21 01:21:00,54.2,53.1,29.39,South,180,3.0,6.0,96,0.00,,,0.00,WeatherCatV1.21B27,2013-10-21 00:21:00,
2013-10-21 01:26:00,54.2,53.1,29.40,SSE,162,5.0,6.0,96,0.00,,,0.00,WeatherCatV1.21B27,2013-10-21 00:26:00,
2013-10-21 01:31:00,54.1,53.0,29.40,SSE,150,4.0,6.0,96,0.00,,,0.00,WeatherCatV1.21B27,2013-10-21 00:31:00,
2013-10-21 01:36:00,54.0,52.9,29.39,SE,129,3.0,7.0,96,0.00,,,0.00,WeatherCatV1.21B27,2013-10-21 00:36:00,
2013-10-21 01:41:00,53.8,52.7,29.39,SSE,148,4.0,8.0,96,0.00,,,0.00,WeatherCatV1.21B27,2013-10-21 00:41:00,
2013-10-21 01:46:00,53.7,52.6,29.39,SSE,155,6.0,6.0,96,0.00,,,0.00,WeatherCatV1.21B27,2013-10-21 00:46:00,
2013-10-21 01:51:00,53.7,52.6,29.39,SE,124,3.0,5.0,96,0.00,,,0.00,WeatherCatV1.21B27,2013-10-21 00:51:00,
2013-10-21 01:56:00,53.7,52.6,29.39,SSE,155,3.0,4.0,96,0.00,,,0.00,WeatherCatV1.21B27,2013-10-21 00:56:00,
2013-10-21 02:01:00,53.7,52.6,29.39,SE,128,4.0,5.0,96,0.00,,,0.00,WeatherCatV1.21B27,2013-10-21 01:01:00,
2013-10-21 02:06:00,53.7,52.6,29.39,SSE,155,5.0,8.0,96,0.00,,,0.00,WeatherCatV1.21B27,2013-10-21 01:06:00,
2013-10-21 02:11:00,53.7,52.6,29.39,South,188,6.0,6.0,96,0.00,,,0.01,WeatherCatV1.21B27,2013-10-21 01:11:00,
2013-10-21 02:16:00,53.7,52.6,29.39,SSE,150,3.0,7.0,96,0.00,,,0.01,WeatherCatV1.21B27,2013-10-21 01:16:00,
2013-10-21 02:21:00,53.6,52.5,29.39,SSE,153,4.0,7.0,96,0.00,,,0.01,WeatherCatV1.21B27,2013-10-21 01:21:00,
2013-10-21 02:26:00,53.5,52.4,29.39,SSE,160,3.0,7.0,96,0.00,,,0.01,WeatherCatV1.21B27,2013-10-21 01:26:00,
2013-10-21 02:31:00,53.5,52.4,29.39,SE,136,4.0,8.0,96,0.00,,,0.01,WeatherCatV1.21B27,2013-10-21 01:31:00,
2013-10-21 02:36:00,53.4,52.0,29.39,SSE,159,4.0,10.0,95,0.00,,,0.01,WeatherCatV1.21B27,2013-10-21 01:36:00,
2013-10-21 02:41:00,53.3,51.9,29.38,SSE,151,4.0,7.0,95,0.00,,,0.01,WeatherCatV1.21B27,2013-10-21 01:41:00,
2013-10-21 02:46:00,53.2,51.8,29.39,SE,141,6.0,7.0,95,0.00,,,0.01,WeatherCatV1.21B27,2013-10-21 01:46:00,
2013-10-21 02:51:00,53.2,51.8,29.38,SSE,159,6.0,7.0,95,0.00,,,0.01,WeatherCatV1.21B27,2013-10-21 01:51:00,
2013-10-21 02:56:00,53.1,51.7,29.38,SSE,166,6.0,7.0,95,0.00,,,0.01,WeatherCatV1.21B27,2013-10-21 01:56:00,
2013-10-21 03:01:00,53.0,51.6,29.38,South,176,4.0,6.0,95,0.00,,,0.01,WeatherCatV1.21B27,2013-10-21 02:01:00,
2013-10-21 03:06:00,53.0,51.6,29.38,SE,136,4.0,7.0,95,0.00,,,0.01,WeatherCatV1.21B27,2013-10-21 02:06:00,
2013-10-21 03:11:00,53.0,51.6,29.37,SSE,163,5.0,7.0,95,0.00,,,0.01,WeatherCatV1.21B27,2013-10-21 02:11:00,
2013-10-21 03:16:00,53.0,51.3,29.37,SSE,153,5.0,7.0,94,0.00,,,0.01,WeatherCatV1.21B27,2013-10-21 02:16:00,
2013-10-21 03:21:00,52.9,51.2,29.37,ESE,122,6.0,7.0,94,0.00,,,0.01,WeatherCatV1.21B27,2013-10-21 02:21:00,
2013-10-21 03:26:00,52.8,51.1,29.36,SE,141,4.0,7.0,94,0.00,,,0.01,WeatherCatV1.21B27,2013-10-21 02:26:00,
2013-10-21 03:31:00,52.5,50.8,29.36,South,183,3.0,7.0,94,0.00,,,0.01,WeatherCatV1.21B27,2013-10-21 02:31:00,
2013-10-21 03:36:00,52.2,50.5,29.36,SSE,167,3.0,4.0,94,0.00,,,0.01,WeatherCatV1.21B27,2013-10-21 02:36:00,
2013-10-21 03:41:00,52.0,50.3,29.35,SSW,194,5.0,6.0,94,0.00,,,0.01,WeatherCatV1.21B27,2013-10-21 02:41:00,
2013-10-21 03:46:00,52.0,50.3,29.35,ESE,104,4.0,6.0,94,0.00,,,0.01,WeatherCatV1.21B27,2013-10-21 02:46:00,
2013-10-21 03:51:00,52.0,50.3,29.35,SE,139,4.0,4.0,94,0.00,,,0.01,WeatherCatV1.21B27,2013-10-21 02:51:00,
2013-10-21 03:56:00,52.1,50.4,29.35,East,90,2.0,2.0,94,0.00,,,0.01,WeatherCatV1.21B27,2013-10-21 02:56:00,
2013-10-21 04:01:00,52.1,50.4,29.35,ESE,105,0.0,0.0,94,0.00,,,0.01,WeatherCatV1.21B27,2013-10-21 03:01:00,
2013-10-21 04:06:00,52.0,50.3,29.35,East,101,3.0,5.0,94,0.00,,,0.01,WeatherCatV1.21B27,2013-10-21 03:06:00,
2013-10-21 04:11:00,51.8,50.1,29.35,SE,125,1.0,2.0,94,0.00,,,0.01,WeatherCatV1.21B27,2013-10-21 03:11:00,
2013-10-21 04:16:00,51.6,49.9,29.35,NNW,328,2.0,3.0,94,0.00,,,0.01,WeatherCatV1.21B27,2013-10-21 03:16:00,
2013-10-21 04:21:00,51.4,50.0,29.34,East,84,1.0,3.0,95,0.00,,,0.01,WeatherCatV1.21B27,2013-10-21 03:21:00,
2013-10-21 04:26:00,51.3,49.9,29.34,East,101,0.0,1.0,95,0.00,,,0.01,WeatherCatV1.21B27,2013-10-21 03:26:00,
2013-10-21 04:31:00,51.2,49.8,29.34,East,92,2.0,3.0,95,0.00,,,0.01,WeatherCatV1.21B27,2013-10-21 03:31:00,
2013-10-21 04:36:00,51.1,49.7,29.34,SE,141,3.0,4.0,95,0.00,,,0.01,WeatherCatV1.21B27,2013-10-21 03:36:00,
2013-10-21 04:41:00,51.0,49.9,29.34,SE,139,1.0,4.0,96,0.00,,,0.01,WeatherCatV1.21B27,2013-10-21 03:41:00,
2013-10-21 04:46:00,51.0,49.9,29.34,SE,144,4.0,6.0,96,0.00,,,0.01,WeatherCatV1.21B27,2013-10-21 03:46:00,
2013-10-21 04:51:00,51.0,49.9,29.34,SE,128,3.0,6.0,96,0.00,,,0.01,WeatherCatV1.21B27,2013-10-21 03:51:00,
2013-10-21 04:56:00,51.1,50.0,29.33,SE,130,3.0,5.0,96,0.00,,,0.01,WeatherCatV1.21B27,2013-10-21 03:56:00,
2013-10-21 05:01:00,51.2,50.1,29.33,SE,136,1.0,3.0,96,0.00,,,0.01,WeatherCatV1.21B27,2013-10-21 04:01:00,
2013-10-21 05:06:00,51.1,50.0,29.33,East,89,2.0,3.0,96,0.00,,,0.01,WeatherCatV1.21B27,2013-10-21 04:06:00,
2013-10-21 05:11:00,51.0,49.9,29.33,East,93,0.0,3.0,96,0.00,,,0.01,WeatherCatV1.21B27,2013-10-21 04:11:00,
2013-10-21 05:16:00,51.0,49.9,29.33,North,6,1.0,1.0,96,0.00,,,0.01,WeatherCatV1.21B27,2013-10-21 04:16:00,
2013-10-21 05:21:00,50.9,49.8,29.33,South,191,2.0,3.0,96,0.00,,,0.01,WeatherCatV1.21B27,2013-10-21 04:21:00,
2013-10-21 05:26:00,50.8,49.7,29.33,South,190,2.0,2.0,96,0.00,,,0.01,WeatherCatV1.21B27,2013-10-21 04:26:00,
2013-10-21 05:31:00,50.7,49.6,29.32,ESE,104,2.0,3.0,96,0.00,,,0.01,WeatherCatV1.21B27,2013-10-21 04:31:00,
2013-10-21 05:36:00,50.6,49.5,29.32,East,91,3.0,4.0,96,0.00,,,0.01,WeatherCatV1.21B27,2013-10-21 04:36:00,
2013-10-21 05:41:00,50.6,49.5,29.32,SE,126,1.0,1.0,96,0.00,,,0.01,WeatherCatV1.21B27,2013-10-21 04:41:00,
2013-10-21 05:46:00,50.5,49.4,29.32,SSE,155,0.0,1.0,96,0.00,,,0.01,WeatherCatV1.21B27,2013-10-21 04:46:00,
2013-10-21 05:51:00,50.3,49.2,29.31,NNW,328,0.0,1.0,96,0.00,,,0.01,WeatherCatV1.21B27,2013-10-21 04:51:00,
2013-10-21 05:56:00,50.2,49.1,29.31,NNE,18,0.0,2.0,96,0.00,,,0.01,WeatherCatV1.21B27,2013-10-21 04:56:00,
2013-10-21 06:01:00,50.1,49.0,29.31,SE,142,0.0,2.0,96,0.00,,,0.01,WeatherCatV1.21B27,2013-10-21 05:01:00,
2013-10-21 06:06:00,49.9,48.8,29.31,NNE,16,1.0,3.0,96,0.00,,,0.01,WeatherCatV1.21B27,2013-10-21 05:06:00,
2013-10-21 06:11:00,49.8,48.7,29.31,NE,53,0.0,1.0,96,0.00,,,0.01,WeatherCatV1.21B27,2013-10-21 05:11:00,
2013-10-21 06:16:00,49.7,48.6,29.31,WNW,285,0.0,1.0,96,0.00,,,0.01,WeatherCatV1.21B27,2013-10-21 05:16:00,
2013-10-21 06:21:00,49.6,48.5,29.30,North,5,0.0,2.0,96,0.00,,,0.01,WeatherCatV1.21B27,2013-10-21 05:21:00,
2013-10-21 06:26:00,49.5,48.4,29.30,North,5,0.0,1.0,96,0.00,,,0.01,WeatherCatV1.21B27,2013-10-21 05:26:00,
2013-10-21 06:31:00,49.3,48.2,29.30,North,5,0.0,0.0,96,0.00,,,0.01,WeatherCatV1.21B27,2013-10-21 05:31:00,
2013-10-21 06:36:00,49.3,48.2,29.30,North,6,1.0,2.0,96,0.00,,,0.01,WeatherCatV1.21B27,2013-10-21 05:36:00,
2013-10-21 06:41:00,49.2,48.4,29.29,NE,37,3.0,3.0,97,0.00,,,0.01,WeatherCatV1.21B27,2013-10-21 05:41:00,
2013-10-21 06:46:00,49.2,48.4,29.29,NNE,19,0.0,1.0,97,0.00,,,0.01,WeatherCatV1.21B27,2013-10-21 05:46:00,
2013-10-21 06:51:00,49.1,48.3,29.29,NNE,26,1.0,1.0,97,0.00,,,0.01,WeatherCatV1.21B27,2013-10-21 05:51:00,
2013-10-21 06:56:00,49.1,48.3,29.28,North,8,0.0,2.0,97,0.00,,,0.01,WeatherCatV1.21B27,2013-10-21 05:56:00,
2013-10-21 07:01:00,49.1,48.3,29.28,NW,322,0.0,2.0,97,0.00,,,0.01,WeatherCatV1.21B27,2013-10-21 06:01:00,
2013-10-21 07:06:00,49.3,48.5,29.28,SE,124,1.0,2.0,97,0.00,,,0.01,WeatherCatV1.21B27,2013-10-21 06:06:00,
2013-10-21 07:11:00,49.4,48.6,29.28,NNE,26,0.0,2.0,97,0.00,,,0.01,WeatherCatV1.21B27,2013-10-21 06:11:00,
2013-10-21 07:16:00,49.5,48.7,29.28,SSE,150,1.0,2.0,97,0.00,,,0.01,WeatherCatV1.21B27,2013-10-21 06:16:00,
2013-10-21 07:21:00,49.6,48.8,29.28,East,84,0.0,3.0,97,0.00,,,0.01,WeatherCatV1.21B27,2013-10-21 06:21:00,
2013-10-21 07:26:00,49.7,48.9,29.28,ESE,103,0.0,1.0,97,0.00,,,0.01,WeatherCatV1.21B27,2013-10-21 06:26:00,
2013-10-21 07:31:00,49.9,49.1,29.27,NW,322,0.0,3.0,97,0.00,,,0.01,WeatherCatV1.21B27,2013-10-21 06:31:00,
2013-10-21 07:36:00,50.0,49.2,29.27,North,9,2.0,3.0,97,0.00,,,0.01,WeatherCatV1.21B27,2013-10-21 06:36:00,
2013-10-21 07:41:00,50.0,49.2,29.26,NNE,32,2.0,3.0,97,0.00,,,0.01,WeatherCatV1.21B27,2013-10-21 06:41:00,
2013-10-21 07:46:00,50.1,49.3,29.26,NNW,342,0.0,2.0,97,0.00,,,0.01,WeatherCatV1.21B27,2013-10-21 06:46:00,
2013-10-21 07:51:00,50.1,49.3,29.26,East,79,1.0,4.0,97,0.00,,,0.01,WeatherCatV1.21B27,2013-10-21 06:51:00,
2013-10-21 07:56:00,50.1,49.3,29.26,East,95,2.0,5.0,97,0.00,,,0.01,WeatherCatV1.21B27,2013-10-21 06:56:00,
2013-10-21 08:01:00,50.1,49.3,29.26,SE,146,0.0,2.0,97,0.00,,,0.01,WeatherCatV1.21B27,2013-10-21 07:01:00,
2013-10-21 08:06:00,50.2,49.4,29.26,NE,36,1.0,4.0,97,0.00,,,0.01,WeatherCatV1.21B27,2013-10-21 07:06:00,
2013-10-21 08:11:00,50.2,49.4,29.25,East,97,0.0,3.0,97,0.00,,,0.01,WeatherCatV1.21B27,2013-10-21 07:11:00,
2013-10-21 08:16:00,50.3,49.5,29.25,NE,44,1.0,1.0,97,0.00,,,0.01,WeatherCatV1.21B27,2013-10-21 07:16:00,
2013-10-21 08:22:00,50.3,49.5,29.24,East,101,2.0,4.0,97,0.00,,,0.01,WeatherCatV1.21B27,2013-10-21 07:22:00,
2013-10-21 08:27:00,50.3,49.5,29.24,East,82,2.0,2.0,97,0.00,,,0.01,WeatherCatV1.21B27,2013-10-21 07:27:00,
2013-10-21 08:32:00,50.2,49.4,29.24,NNW,331,1.0,2.0,97,0.00,,,0.01,WeatherCatV1.21B27,2013-10-21 07:32:00,
2013-10-21 08:37:00,50.3,49.5,29.24,NNE,23,4.0,4.0,97,0.00,,,0.02,WeatherCatV1.21B27,2013-10-21 07:37:00,
2013-10-21 08:42:00,50.4,49.6,29.24,NNW,340,2.0,4.0,97,0.00,,,0.02,WeatherCatV1.21B27,2013-10-21 07:42:00,
2013-10-21 08:47:00,50.6,49.8,29.24,ESE,115,3.0,6.0,97,0.00,,,0.02,WeatherCatV1.21B27,2013-10-21 07:47:00,
2013-10-21 08:52:00,50.6,49.8,29.24,East,89,2.0,2.0,97,0.00,,,0.02,WeatherCatV1.21B27,2013-10-21 07:52:00,
2013-10-21 08:57:00,50.7,49.9,29.24,NNW,347,0.0,5.0,97,0.00,,,0.02,WeatherCatV1.21B27,2013-10-21 07:57:00,
2013-10-21 09:02:00,50.8,50.0,29.24,ESE,103,1.0,3.0,97,0.04,,,0.03,WeatherCatV1.21B27,2013-10-21 08:02:00,
2013-10-21 09:07:00,50.9,50.1,29.24,North,6,1.0,2.0,97,0.04,,,0.03,WeatherCatV1.21B27,2013-10-21 08:07:00,
2013-10-21 09:12:00,51.0,50.2,29.24,NW,316,2.0,2.0,97,0.08,,,0.04,WeatherCatV1.21B27,2013-10-21 08:12:00,
2013-10-21 09:17:00,51.1,50.3,29.23,NW,311,1.0,1.0,97,0.08,,,0.05,WeatherCatV1.21B27,2013-10-21 08:17:00,
2013-10-21 09:22:00,51.1,50.3,29.24,NW,307,0.0,3.0,97,0.06,,,0.05,WeatherCatV1.21B27,2013-10-21 08:22:00,
2013-10-21 09:27:00,51.2,50.4,29.24,NNE,23,1.0,4.0,97,0.06,,,0.06,WeatherCatV1.21B27,2013-10-21 08:27:00,
2013-10-21 09:32:00,51.2,50.4,29.23,North,356,3.0,5.0,97,0.06,,,0.06,WeatherCatV1.21B27,2013-10-21 08:32:00,
2013-10-21 09:37:00,51.2,50.4,29.23,NNE,15,4.0,5.0,97,0.11,,,0.07,WeatherCatV1.21B27,2013-10-21 08:37:00,
2013-10-21 09:42:00,51.2,50.4,29.23,NNE,20,1.0,3.0,97,0.11,,,0.08,WeatherCatV1.21B27,2013-10-21 08:42:00,
2013-10-21 09:47:00,51.2,50.4,29.22,NNE,12,3.0,3.0,97,0.13,,,0.09,WeatherCatV1.21B27,2013-10-21 08:47:00,
2013-10-21 09:52:00,51.2,50.4,29.22,NNW,343,1.0,3.0,97,0.10,,,0.10,WeatherCatV1.21B27,2013-10-21 08:52:00,
2013-10-21 09:57:00,51.1,50.3,29.22,NNW,347,2.0,5.0,97,0.13,,,0.11,WeatherCatV1.21B27,2013-10-21 08:57:00,
2013-10-21 10:02:00,51.2,50.4,29.22,NNE,22,4.0,4.0,97,0.09,,,0.12,WeatherCatV1.21B27,2013-10-21 09:02:00,
2013-10-21 10:07:00,51.2,50.4,29.22,NE,44,3.0,3.0,97,0.09,,,0.13,WeatherCatV1.21B27,2013-10-21 09:07:00,
2013-10-21 10:12:00,51.3,50.5,29.22,NW,307,1.0,5.0,97,0.06,,,0.13,WeatherCatV1.21B27,2013-10-21 09:12:00,
2013-10-21 10:17:00,51.4,50.8,29.22,NW,312,0.0,4.0,98,0.06,,,0.13,WeatherCatV1.21B27,2013-10-21 09:17:00,
2013-10-21 10:22:00,51.5,51.0,29.21,North,350,4.0,4.0,98,0.06,,,0.13,WeatherCatV1.21B27,2013-10-21 09:22:00,
2013-10-21 10:27:00,51.6,51.0,29.21,NW,304,1.0,3.0,98,0.06,,,0.14,WeatherCatV1.21B27,2013-10-21 09:27:00,
2013-10-21 10:32:00,51.6,51.0,29.21,North,354,2.0,4.0,98,0.14,,,0.16,WeatherCatV1.21B27,2013-10-21 09:32:00,
2013-10-21 10:37:00,51.8,51.2,29.20,NNW,327,3.0,5.0,98,0.09,,,0.16,WeatherCatV1.21B27,2013-10-21 09:37:00,
2013-10-21 10:42:00,51.9,51.3,29.20,NNW,338,2.0,3.0,98,0.05,,,0.16,WeatherCatV1.21B27,2013-10-21 09:42:00,
2013-10-21 10:47:00,52.1,51.5,29.20,SW,222,2.0,4.0,98,0.04,,,0.17,WeatherCatV1.21B27,2013-10-21 09:47:00,
2013-10-21 10:52:00,52.2,51.7,29.20,NNW,347,6.0,6.0,98,0.04,,,0.17,WeatherCatV1.21B27,2013-10-21 09:52:00,
2013-10-21 10:57:00,52.4,51.8,29.19,NW,309,1.0,8.0,98,0.03,,,0.17,WeatherCatV1.21B27,2013-10-21 09:57:00,
2013-10-21 11:02:00,52.5,52.0,29.19,ENE,64,2.0,9.0,98,0.00,,,0.17,WeatherCatV1.21B27,2013-10-21 10:02:00,
2013-10-21 11:07:00,52.6,52.0,29.19,WNW,288,1.0,3.0,98,0.00,,,0.17,WeatherCatV1.21B27,2013-10-21 10:07:00,
2013-10-21 11:12:00,52.7,52.2,29.18,North,359,2.0,7.0,98,0.00,,,0.17,WeatherCatV1.21B27,2013-10-21 10:12:00,
2013-10-21 11:17:00,52.8,52.2,29.18,NNW,332,2.0,6.0,98,0.00,,,0.17,WeatherCatV1.21B27,2013-10-21 10:17:00,
2013-10-21 11:22:00,52.9,52.3,29.18,SE,139,9.0,10.0,98,0.00,,,0.17,WeatherCatV1.21B27,2013-10-21 10:22:00,
2013-10-21 11:27:00,52.9,52.3,29.18,SW,219,2.0,5.0,98,0.00,,,0.17,WeatherCatV1.21B27,2013-10-21 10:27:00,
2013-10-21 11:32:00,53.0,52.2,29.17,WNW,295,2.0,4.0,97,0.00,,,0.17,WeatherCatV1.21B27,2013-10-21 10:32:00,
2013-10-21 11:37:00,53.1,52.5,29.17,SE,135,4.0,6.0,98,0.00,,,0.17,WeatherCatV1.21B27,2013-10-21 10:37:00,
2013-10-21 11:42:00,53.2,52.4,29.17,NW,323,0.0,5.0,97,0.00,,,0.17,WeatherCatV1.21B27,2013-10-21 10:42:00,
2013-10-21 11:47:00,53.3,52.5,29.17,SSE,160,4.0,9.0,97,0.00,,,0.17,WeatherCatV1.21B27,2013-10-21 10:47:00,
2013-10-21 11:52:00,53.4,52.6,29.17,WNW,291,2.0,5.0,97,0.00,,,0.18,WeatherCatV1.21B27,2013-10-21 10:52:00,
2013-10-21 11:57:00,53.3,52.5,29.17,NNE,12,3.0,4.0,97,0.00,,,0.18,WeatherCatV1.21B27,2013-10-21 10:57:00,
2013-10-21 12:02:00,53.3,52.5,29.17,NNW,329,3.0,5.0,97,0.00,,,0.18,WeatherCatV1.21B27,2013-10-21 11:02:00,
2013-10-21 12:07:00,53.3,52.5,29.17,NW,314,5.0,13.0,97,0.00,,,0.19,WeatherCatV1.21B27,2013-10-21 11:07:00,
2013-10-21 12:12:00,53.3,52.5,29.17,NW,323,2.0,6.0,97,0.00,,,0.19,WeatherCatV1.21B27,2013-10-21 11:12:00,
2013-10-21 12:17:00,53.5,52.7,29.16,NE,41,3.0,5.0,97,0.00,,,0.19,WeatherCatV1.21B27,2013-10-21 11:17:00,
2013-10-21 12:22:00,53.5,52.7,29.16,NW,316,2.0,9.0,97,0.03,,,0.20,WeatherCatV1.21B27,2013-10-21 11:22:00,
2013-10-21 12:27:00,53.5,52.7,29.16,NE,40,4.0,5.0,97,0.03,,,0.20,WeatherCatV1.21B27,2013-10-21 11:27:00,
2013-10-21 12:32:00,53.5,52.7,29.15,NW,304,5.0,9.0,97,0.03,,,0.20,WeatherCatV1.21B27,2013-10-21 11:32:00,
2013-10-21 12:37:00,53.4,52.6,29.15,NE,49,7.0,10.0,97,0.03,,,0.20,WeatherCatV1.21B27,2013-10-21 11:37:00,
2013-10-21 12:42:00,53.4,52.6,29.15,NNE,23,7.0,10.0,97,0.03,,,0.20,WeatherCatV1.21B27,2013-10-21 11:42:00,
2013-10-21 12:47:00,53.4,52.6,29.14,NW,311,4.0,10.0,97,0.05,,,0.21,WeatherCatV1.21B27,2013-10-21 11:47:00,
2013-10-21 12:52:00,53.4,52.6,29.14,NW,323,1.0,6.0,97,0.05,,,0.21,WeatherCatV1.21B27,2013-10-21 11:52:00,
2013-10-21 12:57:00,53.6,52.8,29.15,NNW,333,2.0,10.0,97,0.04,,,0.21,WeatherCatV1.21B27,2013-10-21 11:57:00,
2013-10-21 13:02:00,53.6,52.8,29.14,WNW,296,6.0,9.0,97,0.03,,,0.21,WeatherCatV1.21B27,2013-10-21 12:02:00,
2013-10-21 13:07:00,53.7,52.9,29.14,NW,311,3.0,9.0,97,0.00,,,0.22,WeatherCatV1.21B27,2013-10-21 12:07:00,
2013-10-21 13:12:00,53.7,52.9,29.14,NE,49,7.0,8.0,97,0.06,,,0.23,WeatherCatV1.21B27,2013-10-21 12:12:00,
2013-10-21 13:17:00,53.7,52.9,29.14,NNW,338,2.0,11.0,97,0.06,,,0.23,WeatherCatV1.21B27,2013-10-21 12:17:00,
2013-10-21 13:22:00,53.7,52.9,29.14,WSW,240,2.0,13.0,97,0.04,,,0.23,WeatherCatV1.21B27,2013-10-21 12:22:00,
2013-10-21 13:27:00,53.8,53.0,29.13,NNW,335,5.0,9.0,97,0.03,,,0.24,WeatherCatV1.21B27,2013-10-21 12:27:00,
2013-10-21 13:32:00,53.8,53.0,29.14,North,351,2.0,8.0,97,0.03,,,0.24,WeatherCatV1.21B27,2013-10-21 12:32:00,
2013-10-21 13:37:00,53.7,52.9,29.14,NW,310,5.0,10.0,97,0.03,,,0.24,WeatherCatV1.21B27,2013-10-21 12:37:00,
2013-10-21 13:42:00,53.8,53.0,29.14,NW,314,2.0,5.0,97,0.00,,,0.24,WeatherCatV1.21B27,2013-10-21 12:42:00,
2013-10-21 13:47:00,53.8,53.0,29.14,WNW,301,3.0,9.0,97,0.00,,,0.24,WeatherCatV1.21B27,2013-10-21 12:47:00,
2013-10-21 13:52:00,53.8,53.0,29.13,NNW,335,2.0,5.0,97,0.00,,,0.24,WeatherCatV1.21B27,2013-10-21 12:52:00,
2013-10-21 13:57:00,53.9,53.1,29.13,North,5,2.0,7.0,97,0.00,,,0.24,WeatherCatV1.21B27,2013-10-21 12:57:00,
2013-10-21 14:02:00,54.0,53.5,29.13,WNW,297,3.0,6.0,98,0.00,,,0.24,WeatherCatV1.21B27,2013-10-21 13:02:00,
2013-10-21 14:07:00,54.0,53.2,29.13,NNW,341,3.0,5.0,97,0.00,,,0.24,WeatherCatV1.21B27,2013-10-21 13:07:00,
2013-10-21 14:12:00,54.1,53.3,29.12,North,5,6.0,7.0,97,0.00,,,0.24,WeatherCatV1.21B27,2013-10-21 13:12:00,
2013-10-21 14:17:00,54.1,53.3,29.12,North,349,3.0,10.0,97,0.00,,,0.24,WeatherCatV1.21B27,2013-10-21 13:17:00,
2013-10-21 14:22:00,54.3,53.8,29.12,WSW,256,2.0,6.0,98,0.00,,,0.24,WeatherCatV1.21B27,2013-10-21 13:22:00,
2013-10-21 14:27:00,54.5,54.0,29.12,NNW,330,1.0,7.0,98,0.00,,,0.24,WeatherCatV1.21B27,2013-10-21 13:27:00,
2013-10-21 14:32:00,54.5,54.0,29.12,NW,308,1.0,3.0,98,0.00,,,0.24,WeatherCatV1.21B27,2013-10-21 13:32:00,
2013-10-21 14:37:00,54.5,53.7,29.12,North,8,2.0,4.0,97,0.00,,,0.24,WeatherCatV1.21B27,2013-10-21 13:37:00,
2013-10-21 14:42:00,54.5,53.7,29.11,NNE,20,3.0,3.0,97,0.00,,,0.24,WeatherCatV1.21B27,2013-10-21 13:42:00,
2013-10-21 14:47:00,54.5,53.7,29.11,ENE,60,4.0,8.0,97,0.00,,,0.24,WeatherCatV1.21B27,2013-10-21 13:47:00,
2013-10-21 14:52:00,54.6,54.0,29.11,NW,323,0.0,1.0,98,0.00,,,0.24,WeatherCatV1.21B27,2013-10-21 13:52:00,
2013-10-21 14:57:00,54.6,53.8,29.11,North,349,0.0,1.0,97,0.00,,,0.24,WeatherCatV1.21B27,2013-10-21 13:57:00,
2013-10-21 15:02:00,54.7,54.1,29.11,NNW,335,0.0,1.0,98,0.00,,,0.24,WeatherCatV1.21B27,2013-10-21 14:02:00,
2013-10-21 15:07:00,54.7,54.1,29.11,NE,46,2.0,3.0,98,0.00,,,0.24,WeatherCatV1.21B27,2013-10-21 14:07:00,
2013-10-21 15:12:00,54.8,54.2,29.10,East,98,1.0,1.0,98,0.00,,,0.24,WeatherCatV1.21B27,2013-10-21 14:12:00,
2013-10-21 15:17:00,54.9,54.3,29.10,North,8,1.0,2.0,98,0.00,,,0.24,WeatherCatV1.21B27,2013-10-21 14:17:00,
2013-10-21 15:22:00,54.9,54.3,29.10,NNW,337,1.0,4.0,98,0.00,,,0.24,WeatherCatV1.21B27,2013-10-21 14:22:00,
2013-10-21 15:27:00,55.1,54.5,29.10,NE,37,1.0,2.0,98,0.00,,,0.24,WeatherCatV1.21B27,2013-10-21 14:27:00,
2013-10-21 15:32:00,55.2,54.6,29.10,ENE,66,0.0,3.0,98,0.00,,,0.24,WeatherCatV1.21B27,2013-10-21 14:32:00,
2013-10-21 15:37:00,55.3,54.7,29.10,North,351,0.0,1.0,98,0.00,,,0.24,WeatherCatV1.21B27,2013-10-21 14:37:00,
2013-10-21 15:42:00,55.4,54.8,29.10,North,6,0.0,0.0,98,0.00,,,0.24,WeatherCatV1.21B27,2013-10-21 14:42:00,
2013-10-21 15:47:00,55.5,54.9,29.10,NNE,15,0.0,0.0,98,0.00,,,0.24,WeatherCatV1.21B27,2013-10-21 14:47:00,
2013-10-21 15:52:00,55.6,55.0,29.10,East,97,0.0,1.0,98,0.00,,,0.24,WeatherCatV1.21B27,2013-10-21 14:52:00,
2013-10-21 15:57:00,55.6,55.0,29.10,ESE,105,1.0,1.0,98,0.00,,,0.24,WeatherCatV1.21B27,2013-10-21 14:57:00,
2013-10-21 16:02:00,55.6,55.0,29.10,SE,132,1.0,3.0,98,0.00,,,0.24,WeatherCatV1.21B27,2013-10-21 15:02:00,
2013-10-21 16:07:00,55.7,55.1,29.10,East,96,1.0,4.0,98,0.00,,,0.24,WeatherCatV1.21B27,2013-10-21 15:07:00,
2013-10-21 16:12:00,55.7,55.1,29.10,ESE,112,1.0,2.0,98,0.00,,,0.24,WeatherCatV1.21B27,2013-10-21 15:12:00,
2013-10-21 16:17:00,55.8,55.2,29.10,SE,135,2.0,3.0,98,0.00,,,0.24,WeatherCatV1.21B27,2013-10-21 15:17:00,
2013-10-21 16:22:00,55.9,55.3,29.10,ESE,116,3.0,3.0,98,0.00,,,0.24,WeatherCatV1.21B27,2013-10-21 15:22:00,
2013-10-21 16:27:00,55.9,55.3,29.10,SE,134,2.0,4.0,98,0.00,,,0.24,WeatherCatV1.21B27,2013-10-21 15:27:00,
2013-10-21 16:32:00,56.1,55.5,29.10,SE,129,2.0,4.0,98,0.00,,,0.24,WeatherCatV1.21B27,2013-10-21 15:32:00,
2013-10-21 16:37:00,56.2,55.6,29.10,SE,126,1.0,3.0,98,0.00,,,0.24,WeatherCatV1.21B27,2013-10-21 15:37:00,
2013-10-21 16:42:00,56.3,55.7,29.10,SE,129,1.0,3.0,98,0.00,,,0.24,WeatherCatV1.21B27,2013-10-21 15:42:00,
2013-10-21 16:47:00,56.4,55.8,29.10,ESE,121,2.0,4.0,98,0.00,,,0.24,WeatherCatV1.21B27,2013-10-21 15:47:00,
2013-10-21 16:52:00,56.5,55.9,29.09,SSE,156,2.0,4.0,98,0.00,,,0.24,WeatherCatV1.21B27,2013-10-21 15:52:00,
2013-10-21 16:57:00,56.5,55.9,29.09,East,82,4.0,5.0,98,0.00,,,0.24,WeatherCatV1.21B27,2013-10-21 15:57:00,
2013-10-21 17:02:00,56.6,56.0,29.09,ESE,105,2.0,2.0,98,0.00,,,0.24,WeatherCatV1.21B27,2013-10-21 16:02:00,
2013-10-21 17:07:00,56.6,56.0,29.08,ESE,121,4.0,5.0,98,0.00,,,0.24,WeatherCatV1.21B27,2013-10-21 16:07:00,
2013-10-21 17:12:00,56.7,56.1,29.08,SE,124,2.0,3.0,98,0.00,,,0.24,WeatherCatV1.21B27,2013-10-21 16:12:00,
2013-10-21 17:17:00,56.8,56.2,29.08,SSE,159,2.0,4.0,98,0.00,,,0.24,WeatherCatV1.21B27,2013-10-21 16:17:00,
2013-10-21 17:22:00,57.0,56.4,29.08,SE,136,1.0,2.0,98,0.00,,,0.24,WeatherCatV1.21B27,2013-10-21 16:22:00,
2013-10-21 17:27:00,57.0,56.4,29.08,SE,128,1.0,2.0,98,0.00,,,0.24,WeatherCatV1.21B27,2013-10-21 16:27:00,
2013-10-21 17:32:00,57.1,56.5,29.08,SE,124,3.0,4.0,98,0.00,,,0.24,WeatherCatV1.21B27,2013-10-21 16:32:00,
2013-10-21 17:37:00,57.2,56.6,29.08,East,97,5.0,5.0,98,0.00,,,0.24,WeatherCatV1.21B27,2013-10-21 16:37:00,
2013-10-21 17:42:00,57.3,56.7,29.08,SE,136,1.0,4.0,98,0.00,,,0.24,WeatherCatV1.21B27,2013-10-21 16:42:00,
2013-10-21 17:47:00,57.3,56.7,29.08,SE,131,2.0,4.0,98,0.00,,,0.24,WeatherCatV1.21B27,2013-10-21 16:47:00,
2013-10-21 17:52:00,57.3,56.7,29.08,SSE,155,3.0,3.0,98,0.00,,,0.24,WeatherCatV1.21B27,2013-10-21 16:52:00,
2013-10-21 17:57:00,57.4,56.8,29.08,SE,139,1.0,1.0,98,0.00,,,0.24,WeatherCatV1.21B27,2013-10-21 16:57:00,
2013-10-21 18:02:00,57.5,56.9,29.08,SE,132,4.0,4.0,98,0.00,,,0.24,WeatherCatV1.21B27,2013-10-21 17:02:00,
2013-10-21 18:07:00,57.6,57.0,29.08,ESE,112,4.0,7.0,98,0.00,,,0.24,WeatherCatV1.21B27,2013-10-21 17:07:00,
2013-10-21 18:12:00,57.8,57.2,29.08,ESE,113,4.0,7.0,98,0.00,,,0.24,WeatherCatV1.21B27,2013-10-21 17:12:00,
2013-10-21 18:17:00,57.9,57.3,29.08,ESE,107,2.0,3.0,98,0.00,,,0.24,WeatherCatV1.21B27,2013-10-21 17:17:00,
2013-10-21 18:22:00,58.0,57.4,29.08,SE,134,2.0,3.0,98,0.00,,,0.24,WeatherCatV1.21B27,2013-10-21 17:22:00,
2013-10-21 18:27:00,58.2,57.6,29.08,SSE,148,3.0,5.0,98,0.00,,,0.24,WeatherCatV1.21B27,2013-10-21 17:27:00,
2013-10-21 18:32:00,58.3,57.7,29.08,SE,129,2.0,4.0,98,0.00,,,0.24,WeatherCatV1.21B27,2013-10-21 17:32:00,
2013-10-21 18:37:00,58.3,57.7,29.08,ESE,111,3.0,4.0,98,0.00,,,0.24,WeatherCatV1.21B27,2013-10-21 17:37:00,
2013-10-21 18:42:00,58.3,57.7,29.08,ESE,114,2.0,4.0,98,0.00,,,0.24,WeatherCatV1.21B27,2013-10-21 17:42:00,
2013-10-21 18:47:00,58.4,57.8,29.08,ESE,117,3.0,4.0,98,0.00,,,0.24,WeatherCatV1.21B27,2013-10-21 17:47:00,
2013-10-21 18:52:00,58.4,57.8,29.07,ESE,112,3.0,3.0,98,0.00,,,0.24,WeatherCatV1.21B27,2013-10-21 17:52:00,
2013-10-21 18:57:00,58.4,57.8,29.08,SE,134,1.0,4.0,98,0.00,,,0.24,WeatherCatV1.21B27,2013-10-21 17:57:00,
2013-10-21 19:02:00,58.3,57.7,29.08,ESE,121,1.0,3.0,98,0.00,,,0.24,WeatherCatV1.21B27,2013-10-21 18:02:00,
2013-10-21 19:07:00,58.4,57.8,29.07,ESE,117,6.0,11.0,98,0.00,,,0.24,WeatherCatV1.21B27,2013-10-21 18:07:00,
2013-10-21 19:12:00,58.6,58.0,29.07,SE,124,4.0,8.0,98,0.00,,,0.24,WeatherCatV1.21B27,2013-10-21 18:12:00,
2013-10-21 19:17:00,58.7,57.8,29.07,SE,135,3.0,7.0,97,0.00,,,0.24,WeatherCatV1.21B27,2013-10-21 18:17:00,
2013-10-21 19:22:00,58.7,57.8,29.07,ESE,108,4.0,6.0,97,0.00,,,0.24,WeatherCatV1.21B27,2013-10-21 18:22:00,
2013-10-21 19:27:00,58.6,57.8,29.07,South,177,3.0,3.0,97,0.00,,,0.24,WeatherCatV1.21B27,2013-10-21 18:27:00,
2013-10-21 19:32:00,58.6,57.8,29.08,SE,136,5.0,8.0,97,0.00,,,0.24,WeatherCatV1.21B27,2013-10-21 18:32:00,
2013-10-21 19:37:00,58.6,57.8,29.08,SSE,167,3.0,10.0,97,0.00,,,0.24,WeatherCatV1.21B27,2013-10-21 18:37:00,
2013-10-21 19:42:00,58.6,57.5,29.08,SSE,160,4.0,5.0,96,0.00,,,0.24,WeatherCatV1.21B27,2013-10-21 18:42:00,
2013-10-21 19:47:00,58.5,57.4,29.08,SSE,148,6.0,7.0,96,0.00,,,0.24,WeatherCatV1.21B27,2013-10-21 18:47:00,
2013-10-21 19:52:00,58.5,57.4,29.07,SE,138,6.0,9.0,96,0.00,,,0.24,WeatherCatV1.21B27,2013-10-21 18:52:00,
2013-10-21 19:57:00,58.6,57.5,29.07,South,174,7.0,10.0,96,0.00,,,0.24,WeatherCatV1.21B27,2013-10-21 18:57:00,
2013-10-21 20:02:00,58.6,57.2,29.06,SSE,165,10.0,10.0,95,0.00,,,0.24,WeatherCatV1.21B27,2013-10-21 19:02:00,
2013-10-21 20:07:00,58.6,57.2,29.06,SE,141,5.0,6.0,95,0.00,,,0.24,WeatherCatV1.21B27,2013-10-21 19:07:00,
2013-10-21 20:12:00,58.5,57.1,29.06,SE,139,7.0,7.0,95,0.00,,,0.24,WeatherCatV1.21B27,2013-10-21 19:12:00,
2013-10-21 20:17:00,58.4,57.0,29.06,South,181,7.0,7.0,95,0.00,,,0.24,WeatherCatV1.21B27,2013-10-21 19:17:00,
2013-10-21 20:22:00,58.4,57.0,29.06,SSE,150,5.0,9.0,95,0.00,,,0.24,WeatherCatV1.21B27,2013-10-21 19:22:00,
2013-10-21 20:27:00,58.3,56.9,29.06,SE,128,7.0,7.0,95,0.00,,,0.24,WeatherCatV1.21B27,2013-10-21 19:27:00,
2013-10-21 20:32:00,58.3,56.9,29.06,SE,143,8.0,11.0,95,0.00,,,0.24,WeatherCatV1.21B27,2013-10-21 19:32:00,
2013-10-21 20:37:00,58.2,56.8,29.06,South,169,5.0,9.0,95,0.00,,,0.24,WeatherCatV1.21B27,2013-10-21 19:37:00,
2013-10-21 20:42:00,58.2,56.8,29.06,SE,125,6.0,7.0,95,0.00,,,0.24,WeatherCatV1.21B27,2013-10-21 19:42:00,
2013-10-21 20:47:00,58.2,57.1,29.06,SSE,160,5.0,6.0,96,0.00,,,0.24,WeatherCatV1.21B27,2013-10-21 19:47:00,
2013-10-21 20:52:00,58.2,57.1,29.06,SSE,156,4.0,10.0,96,0.00,,,0.24,WeatherCatV1.21B27,2013-10-21 19:52:00,
2013-10-21 20:57:00,58.2,57.1,29.05,SSW,197,0.0,1.0,96,0.00,,,0.24,WeatherCatV1.21B27,2013-10-21 19:57:00,
2013-10-21 21:02:00,58.1,57.0,29.04,SE,137,5.0,6.0,96,0.00,,,0.25,WeatherCatV1.21B27,2013-10-21 20:02:00,
2013-10-21 21:07:00,58.1,57.0,29.04,ESE,123,2.0,3.0,96,0.00,,,0.25,WeatherCatV1.21B27,2013-10-21 20:07:00,
2013-10-21 21:12:00,58.0,56.9,29.04,SSE,150,2.0,4.0,96,0.06,,,0.26,WeatherCatV1.21B27,2013-10-21 20:12:00,
2013-10-21 21:17:00,58.0,56.9,29.05,SE,139,5.0,8.0,96,0.05,,,0.26,WeatherCatV1.21B27,2013-10-21 20:17:00,
2013-10-21 21:22:00,58.0,56.9,29.04,ESE,117,5.0,7.0,96,0.03,,,0.26,WeatherCatV1.21B27,2013-10-21 20:22:00,
2013-10-21 21:27:00,58.2,57.1,29.04,SE,136,5.0,9.0,96,0.00,,,0.26,WeatherCatV1.21B27,2013-10-21 20:27:00,
2013-10-21 21:32:00,58.3,57.2,29.04,SE,143,3.0,8.0,96,0.00,,,0.26,WeatherCatV1.21B27,2013-10-21 20:32:00,
2013-10-21 21:37:00,58.3,57.2,29.03,SE,145,4.0,5.0,96,0.00,,,0.26,WeatherCatV1.21B27,2013-10-21 20:37:00,
2013-10-21 21:42:00,58.3,57.2,29.03,ESE,111,3.0,7.0,96,0.00,,,0.26,WeatherCatV1.21B27,2013-10-21 20:42:00,
2013-10-21 21:47:00,58.2,57.1,29.03,SE,141,4.0,6.0,96,0.00,,,0.26,WeatherCatV1.21B27,2013-10-21 20:47:00,
2013-10-21 21:52:00,58.1,57.0,29.04,ESE,117,9.0,9.0,96,0.00,,,0.26,WeatherCatV1.21B27,2013-10-21 20:52:00,
2013-10-21 21:57:00,58.1,57.0,29.04,SE,135,6.0,8.0,96,0.00,,,0.27,WeatherCatV1.21B27,2013-10-21 20:57:00,
2013-10-21 22:02:00,58.0,56.9,29.04,SE,143,2.0,10.0,96,0.18,,,0.28,WeatherCatV1.21B27,2013-10-21 21:02:00,
2013-10-21 22:07:00,58.0,56.6,29.04,SE,137,3.0,7.0,95,0.06,,,0.28,WeatherCatV1.21B27,2013-10-21 21:07:00,
2013-10-21 22:12:00,58.0,56.6,29.04,SSE,168,2.0,2.0,95,0.05,,,0.28,WeatherCatV1.21B27,2013-10-21 21:12:00,
2013-10-21 22:17:00,57.9,56.5,29.04,SSE,155,3.0,5.0,95,0.05,,,0.28,WeatherCatV1.21B27,2013-10-21 21:17:00,
2013-10-21 22:22:00,57.7,56.3,29.03,SE,125,8.0,8.0,95,0.04,,,0.28,WeatherCatV1.21B27,2013-10-21 21:22:00,
2013-10-21 22:27:00,57.6,56.5,29.03,SE,141,4.0,7.0,96,0.03,,,0.28,WeatherCatV1.21B27,2013-10-21 21:27:00,
2013-10-21 22:32:00,57.5,56.4,29.03,SE,129,6.0,9.0,96,0.00,,,0.28,WeatherCatV1.21B27,2013-10-21 21:32:00,
2013-10-21 22:37:00,57.4,56.3,29.03,SE,133,3.0,9.0,96,0.00,,,0.28,WeatherCatV1.21B27,2013-10-21 21:37:00,
2013-10-21 22:42:00,57.3,56.2,29.03,SSE,158,6.0,9.0,96,0.00,,,0.28,WeatherCatV1.21B27,2013-10-21 21:42:00,
2013-10-21 22:47:00,57.2,56.1,29.03,SE,142,4.0,5.0,96,0.00,,,0.28,WeatherCatV1.21B27,2013-10-21 21:47:00,
2013-10-21 22:52:00,57.1,56.0,29.03,SSE,149,4.0,7.0,96,0.00,,,0.28,WeatherCatV1.21B27,2013-10-21 21:52:00,
2013-10-21 22:57:00,57.0,55.9,29.02,SE,141,3.0,6.0,96,0.00,,,0.28,WeatherCatV1.21B27,2013-10-21 21:57:00,
2013-10-21 23:02:00,57.1,56.2,29.02,SSE,153,7.0,10.0,97,0.00,,,0.28,WeatherCatV1.21B27,2013-10-21 22:02:00,
2013-10-21 23:07:00,57.1,56.2,29.02,SSE,155,3.0,5.0,97,0.00,,,0.28,WeatherCatV1.21B27,2013-10-21 22:07:00,
2013-10-21 23:12:00,57.1,56.2,29.02,SE,135,3.0,7.0,97,0.00,,,0.28,WeatherCatV1.21B27,2013-10-21 22:12:00,
2013-10-21 23:17:00,57.1,56.2,29.02,SE,126,4.0,10.0,97,0.00,,,0.28,WeatherCatV1.21B27,2013-10-21 22:17:00,
2013-10-21 23:22:00,57.2,56.3,29.02,ESE,121,3.0,8.0,97,0.00,,,0.28,WeatherCatV1.21B27,2013-10-21 22:22:00,
2013-10-21 23:27:00,57.2,56.3,29.02,ESE,117,5.0,8.0,97,0.00,,,0.28,WeatherCatV1.21B27,2013-10-21 22:27:00,
2013-10-21 23:32:00,57.2,56.3,29.02,SE,134,3.0,8.0,97,0.00,,,0.28,WeatherCatV1.21B27,2013-10-21 22:32:00,
2013-10-21 23:37:00,57.2,56.3,29.02,SE,138,4.0,8.0,97,0.00,,,0.28,WeatherCatV1.21B27,2013-10-21 22:37:00,
2013-10-21 23:42:00,57.1,56.2,29.02,SE,144,4.0,5.0,97,0.00,,,0.28,WeatherCatV1.21B27,2013-10-21 22:42:00,
2013-10-21 23:47:00,57.1,56.2,29.02,South,187,3.0,7.0,97,0.00,,,0.28,WeatherCatV1.21B27,2013-10-21 22:47:00,
2013-10-21 23:52:00,57.1,56.2,29.02,SSE,149,3.0,8.0,97,0.00,,,0.28,WeatherCatV1.21B27,2013-10-21 22:52:00,
2013-10-21 23:57:00,57.0,56.2,29.03,SSE,152,9.0,9.0,97,0.00,,,0.28,WeatherCatV1.21B27,2013-10-21 22:57:00,